YWLMYTRE

Guest
Details From YWLM - Williamtown
To YTRE - Taree
Flight Number -
Tags generated
Created
Modified
Stats Distance 65 nm / 119 km
Max Altitude 0 ft / 0 m
Waypoints 3
Social Downloads 0
Likes 0
Share VATSIM

Download

Looking for another format? Having issues loading an existing format? Contact us
Advertisement - Login to hide

Notes

Basic altitude profile: - Ascent Rate: 2500ft/min - Ascent Speed: 250kts - Cruise Altitude: 35000ft - Cruise Speed: 420kts - Descent Rate: 1500ft/min - Descent Speed: 250kts Options: - Use NATs: yes - Use PACOTS: yes - Use low airways: yes - Use high airways: yes

Route

YWLM TRE YTRE

ID Type Via Altitude Latitude Longitude Leg Dist Tot Dist Heading (true) Name
O YWLM APT - 0 ft / 0 m -32.79588˚ 151.83480˚ - 0 nm - Williamtown
TRE NDB - 0 ft / 0 m -31.88949˚ 152.50948˚ 64 nm 64 nm 32° / 32° TAREE NDB
O YTRE APT - 0 ft / 0 m -31.88718˚ 152.51267˚ 0 nm 64 nm 49° / 49° Taree

Altitude Profile

Advertisement - Login to hide

YWLM

Details ICAO YWLM (NTL)
Name Williamtown
Region Australia
Timezone Australia/Sydney (UTC+11.0)
Stats Elevation 31 ft / 9 m (AMSL)
Location -32.795878° 151.834796°
Runways 1
Magnetic Variation 12.386° E

METAR

YWLM 110530Z 10014KT 9999 FEW045 25/15 Q1016 USE TAF FOR ARRIVALS AFTER 0800Z NOSIG

Decode

TAF

TAF YWLM 102312Z 1100/1124 08014KT 9999 FEW040 FM111000 06008KT 9999 SCT020 FM112000 07008KT 9999 FEW030

Decode

Departure Runways

ID Width Length Bearing (true) Bearing (mag) Surface Threshold Offset Overrun Length
12 148 ft / 45 m 8,001 ft / 2,439 m 130.44° 118.05° Asphalt 0 ft / 0 m 1,000 ft / 305 m
30 148 ft / 45 m 8,001 ft / 2,439 m 310.43° 298.04° Asphalt 0 ft / 0 m 1,000 ft / 305 m

YTRE

Details ICAO YTRE (TRO)
Name Taree
Region Australia
Timezone Australia/Sydney (UTC+11.0)
Stats Elevation 37 ft / 11 m (AMSL)
Location -31.887184° 152.512665°
Runways 2
Magnetic Variation 12.275° E

METAR

YTRE 110500Z AUTO 10013KT 9999 // NCD 25/14 Q1017

Decode

TAF

TAF YTRE 110058Z 1102/1114 10012KT 9999 SCT040 FM111000 05005KT 9999 SCT015

Decode

Destination Runways

ID Width Length Bearing (true) Bearing (mag) Surface Threshold Offset Overrun Length
04 98 ft / 30 m 4,946 ft / 1,508 m 44.90° 32.63° Asphalt 384 ft / 117 m 0 ft / 0 m
12 164 ft / 50 m 2,249 ft / 685 m 138.19° 125.92° Grass 0 ft / 0 m 0 ft / 0 m
22 98 ft / 30 m 4,946 ft / 1,508 m 224.90° 212.63° Asphalt 0 ft / 0 m 0 ft / 0 m
30 164 ft / 50 m 2,249 ft / 685 m 318.18° 305.91° Grass 0 ft / 0 m 0 ft / 0 m